Time;durP1;ratioP1;P1;durP2;ratioP2;P2;SDS_P1;SDS_P2;PMS_P1;PMS_P2;Temp;Humidity;BMP_temperature;BMP_pressure;BME280_temperature;BME280_humidity;BME280_pressure;Samples;Min_cycle;Max_cycle;Signal;HPM_P1;HPM_P2
2024/02/09 00:00:22;;;;;;;7.72;6.78;;;1.90;99.90;;;;;;5088723;28;20367;-82
2024/02/09 00:02:48;;;;;;;8.18;7.00;;;1.90;99.90;;;;;;5109371;28;20183;-80
2024/02/09 00:05:15;;;;;;;8.10;7.03;;;1.90;99.90;;;;;;5093705;28;20550;-81
2024/02/09 00:07:45;;;;;;;7.25;6.35;;;2.00;99.90;;;;;;5092486;28;20517;-81
2024/02/09 00:10:12;;;;;;;7.95;6.72;;;2.00;99.90;;;;;;5109270;28;20493;-82
2024/02/09 00:12:40;;;;;;;7.85;6.57;;;1.90;99.90;;;;;;5091800;28;20472;-79
2024/02/09 00:15:07;;;;;;;7.88;6.60;;;1.90;99.90;;;;;;5092449;28;20131;-80
2024/02/09 00:17:36;;;;;;;7.85;6.75;;;1.90;99.90;;;;;;5092222;28;20471;-80
2024/02/09 00:20:07;;;;;;;9.98;6.35;;;1.80;99.90;;;;;;5100290;28;20516;-80
2024/02/09 00:22:35;;;;;;;7.43;6.20;;;1.80;99.90;;;;;;5108958;28;20050;-79
2024/02/09 00:25:08;;;;;;;7.95;6.82;;;1.90;99.90;;;;;;5103094;28;20035;-78
2024/02/09 00:27:35;;;;;;;7.97;6.65;;;1.90;99.90;;;;;;5118250;27;20048;-80
2024/02/09 00:30:01;;;;;;;8.07;6.75;;;1.90;99.90;;;;;;5090664;28;20097;-80
2024/02/09 00:32:26;;;;;;;7.80;6.55;;;1.90;99.90;;;;;;5096257;28;20036;-79
2024/02/09 00:34:54;;;;;;;7.35;6.47;;;1.90;99.90;;;;;;5108281;28;20050;-79
2024/02/09 00:37:23;;;;;;;8.15;6.70;;;1.90;99.90;;;;;;5088647;28;20443;-78
2024/02/09 00:39:49;;;;;;;9.02;7.63;;;1.90;99.90;;;;;;5092362;28;20051;-80
2024/02/09 00:42:15;;;;;;;8.70;7.35;;;1.90;99.90;;;;;;5089143;28;20035;-78
2024/02/09 00:44:43;;;;;;;8.60;7.22;;;1.90;99.90;;;;;;5090678;28;20378;-80
2024/02/09 00:47:09;;;;;;;9.48;7.45;;;1.90;99.90;;;;;;5091855;28;20060;-80
2024/02/09 00:49:35;;;;;;;9.95;8.07;;;1.90;99.90;;;;;;5090548;28;20707;-80
2024/02/09 00:52:04;;;;;;;8.75;7.60;;;1.90;99.90;;;;;;5107448;28;20105;-79
2024/02/09 00:54:30;;;;;;;9.70;8.70;;;1.90;99.90;;;;;;5090780;28;20058;-80
2024/02/09 00:56:56;;;;;;;9.40;7.47;;;2.00;99.90;;;;;;5089866;28;20285;-80
2024/02/09 00:59:23;;;;;;;10.35;8.65;;;1.90;99.90;;;;;;5082466;28;20191;-78
2024/02/09 01:01:53;;;;;;;9.85;8.25;;;1.90;99.90;;;;;;5084304;28;20493;-79
2024/02/09 01:04:20;;;;;;;9.27;7.82;;;1.90;99.90;;;;;;5105759;28;20047;-79
2024/02/09 01:06:49;;;;;;;10.82;9.10;;;1.90;99.90;;;;;;5091941;28;20110;-79
2024/02/09 01:09:15;;;;;;;10.13;8.40;;;1.90;99.90;;;;;;5106262;28;20035;-79
2024/02/09 01:11:41;;;;;;;10.35;8.70;;;1.90;99.90;;;;;;5103154;28;20046;-79
2024/02/09 02:47:05;;;;;;;15.07;10.60;;;2.40;99.90;;;;;;5086023;28;20036;-80
2024/02/09 03:05:56;;;;;;;14.70;9.82;;;2.40;99.90;;;;;;5100890;28;20182;-79
2024/02/09 03:08:22;;;;;;;13.50;9.25;;;2.40;99.90;;;;;;5107858;28;20755;-79
2024/02/09 03:10:51;;;;;;;13.20;9.02;;;2.40;99.90;;;;;;5109683;28;20047;-80
2024/02/09 03:13:17;;;;;;;14.63;9.63;;;2.50;99.90;;;;;;5107867;28;20040;-79
2024/02/09 03:15:45;;;;;;;14.77;9.27;;;2.50;99.90;;;;;;5108478;28;20054;-79
2024/02/09 03:18:11;;;;;;;15.15;9.23;;;2.50;99.90;;;;;;5092198;28;20067;-79
2024/02/09 03:20:40;;;;;;;15.25;9.70;;;2.50;99.90;;;;;;5109798;28;20040;-81
2024/02/09 03:23:06;;;;;;;14.90;9.85;;;2.50;99.90;;;;;;5081985;28;20036;-80
2024/02/09 03:25:32;;;;;;;15.02;9.07;;;2.50;99.90;;;;;;5108493;28;20147;-79
2024/02/09 03:27:58;;;;;;;14.52;9.38;;;2.50;99.90;;;;;;5103854;28;20131;-80
2024/02/09 03:30:26;;;;;;;15.35;9.32;;;2.50;99.90;;;;;;5106330;28;20123;-79
2024/02/09 03:32:53;;;;;;;13.70;9.07;;;2.50;99.90;;;;;;5084202;28;20587;-79
2024/02/09 03:35:19;;;;;;;14.00;9.02;;;2.50;99.90;;;;;;5091278;28;20032;-79
2024/02/09 03:37:44;;;;;;;16.23;9.48;;;2.50;99.90;;;;;;5107798;28;20043;-80
2024/02/09 03:40:14;;;;;;;15.38;9.23;;;2.50;99.90;;;;;;5092218;28;20497;-80
2024/02/09 03:42:41;;;;;;;16.13;9.30;;;2.60;99.90;;;;;;5090610;28;20039;-76
2024/02/09 03:45:07;;;;;;;16.75;9.90;;;2.60;99.90;;;;;;5090687;28;20027;-76
2024/02/09 03:47:33;;;;;;;15.05;9.45;;;2.60;99.90;;;;;;5092387;28;20044;-77
2024/02/09 03:49:59;;;;;;;14.68;9.00;;;2.70;99.90;;;;;;5091175;28;20047;-77
2024/02/09 03:52:34;;;;;;;15.48;9.55;;;2.70;99.90;;;;;;5093052;28;20436;-76
2024/02/09 03:55:00;;;;;;;16.83;10.02;;;2.70;99.90;;;;;;5102867;27;20051;-76
2024/02/09 03:57:31;;;;;;;17.42;9.93;;;2.70;99.90;;;;;;5092064;27;20040;-77
2024/02/09 03:59:58;;;;;;;15.52;9.57;;;2.80;99.90;;;;;;5098280;27;20134;-75
2024/02/09 04:02:24;;;;;;;14.27;9.23;;;2.70;99.90;;;;;;5085654;28;20076;-77
2024/02/09 04:04:49;;;;;;;16.92;10.30;;;2.70;99.90;;;;;;5105052;27;20067;-77
2024/02/09 04:07:20;;;;;;;17.55;10.57;;;2.80;99.90;;;;;;5106566;27;20040;-76
2024/02/09 04:09:46;;;;;;;16.20;10.30;;;2.80;99.90;;;;;;5107138;27;20502;-76
2024/02/09 04:12:12;;;;;;;17.85;10.85;;;2.80;99.90;;;;;;5105905;27;20039;-76
2024/02/09 04:14:38;;;;;;;18.48;10.82;;;2.80;99.90;;;;;;5084225;27;20042;-76
2024/02/09 04:17:07;;;;;;;17.70;10.57;;;2.80;99.90;;;;;;5109969;27;20043;-76
2024/02/09 04:19:39;;;;;;;18.20;11.40;;;2.90;99.90;;;;;;5080924;28;20051;-76
2024/02/09 04:22:10;;;;;;;19.65;11.73;;;2.90;99.90;;;;;;5104530;27;20395;-77
2024/02/09 04:24:39;;;;;;;17.80;10.85;;;2.90;99.90;;;;;;5101169;28;20075;-76
2024/02/09 04:27:05;;;;;;;17.90;11.13;;;2.90;99.90;;;;;;5106856;27;20114;-76
2024/02/09 04:29:36;;;;;;;19.52;11.90;;;2.90;99.90;;;;;;5082775;27;20123;-76
2024/02/09 04:32:06;;;;;;;19.23;11.32;;;3.00;99.90;;;;;;5082253;28;20043;-77
2024/02/09 04:34:32;;;;;;;19.20;11.07;;;3.00;99.90;;;;;;5098505;27;20041;-76
2024/02/09 04:37:01;;;;;;;18.02;11.18;;;3.00;99.90;;;;;;5091287;28;20432;-75
2024/02/09 04:39:26;;;;;;;18.00;10.95;;;3.00;99.90;;;;;;5092938;28;20079;-76
2024/02/09 04:41:52;;;;;;;19.98;11.88;;;3.00;99.90;;;;;;5097733;27;20101;-77
2024/02/09 04:44:21;;;;;;;21.17;12.30;;;3.00;99.90;;;;;;5105685;27;20083;-76
2024/02/09 04:46:48;;;;;;;21.65;12.52;;;3.00;99.90;;;;;;5102573;27;20096;-76
2024/02/09 04:49:14;;;;;;;22.67;12.15;;;3.00;99.90;;;;;;5095321;27;20031;-76
2024/02/09 04:51:44;;;;;;;22.77;12.38;;;3.10;99.90;;;;;;5079432;28;20100;-76
2024/02/09 04:54:11;;;;;;;24.15;13.65;;;3.10;99.90;;;;;;5100785;28;20110;-76
2024/02/09 04:56:37;;;;;;;23.10;12.25;;;3.10;99.90;;;;;;5080343;28;20042;-77
2024/02/09 04:59:08;;;;;;;20.88;12.07;;;3.10;99.90;;;;;;5084009;28;20490;-76
2024/02/09 05:01:39;;;;;;;21.67;11.82;;;3.10;99.90;;;;;;5097575;28;20122;-77
2024/02/09 05:04:08;;;;;;;;;;;3.10;99.90;;;;;;5081616;28;20050;-76
2024/02/09 05:06:34;;;;;;;21.75;12.68;;;3.20;99.90;;;;;;5092442;27;20362;-78
2024/02/09 05:09:05;;;;;;;24.27;12.48;;;3.20;99.90;;;;;;5098981;28;20082;-76
2024/02/09 05:11:36;;;;;;;24.10;12.73;;;3.20;99.90;;;;;;5080780;28;20043;-76
2024/02/09 05:14:04;;;;;;;22.58;12.93;;;3.30;99.90;;;;;;5088983;27;20073;-76
2024/02/09 05:16:31;;;;;;;25.77;14.55;;;3.30;99.90;;;;;;5104366;27;20051;-75
2024/02/09 05:18:57;;;;;;;28.60;14.90;;;3.40;99.90;;;;;;5104236;27;20051;-75
2024/02/09 05:21:23;;;;;;;30.80;16.73;;;3.40;99.90;;;;;;5082913;28;20118;-75
2024/02/09 05:23:49;;;;;;;30.27;16.08;;;3.50;99.90;;;;;;5103066;27;20051;-75
2024/02/09 05:26:17;;;;;;;28.98;16.73;;;3.50;99.90;;;;;;5077703;28;20115;-75
2024/02/09 05:28:44;;;;;;;30.98;16.40;;;3.60;99.90;;;;;;5080918;28;20055;-75
2024/02/09 05:31:15;;;;;;;33.03;17.85;;;3.60;99.90;;;;;;5085506;27;20043;-75
2024/02/09 05:33:42;;;;;;;37.42;19.13;;;3.60;99.90;;;;;;5104349;27;20123;-75
2024/02/09 05:36:18;;;;;;;36.15;19.38;;;3.60;99.90;;;;;;5103800;27;20040;-76
2024/02/09 05:38:44;;;;;;;35.22;18.65;;;3.50;99.90;;;;;;5091627;28;20099;-75
2024/02/09 05:41:11;;;;;;;34.78;17.38;;;3.60;99.90;;;;;;5089665;27;20122;-75
2024/02/09 05:43:37;;;;;;;37.83;18.15;;;3.60;99.90;;;;;;5100654;27;20114;-75
2024/02/09 05:46:03;;;;;;;39.88;19.70;;;3.60;99.90;;;;;;5099324;27;20143;-75
2024/02/09 05:48:29;;;;;;;39.13;19.92;;;3.70;99.90;;;;;;5099532;27;20126;-75
2024/02/09 05:50:55;;;;;;;41.38;20.77;;;3.70;99.90;;;;;;5101815;27;20048;-76
2024/02/09 05:53:21;;;;;;;43.88;20.70;;;3.70;99.90;;;;;;5104310;27;20538;-75
2024/02/09 05:55:47;;;;;;;43.40;21.38;;;3.80;99.90;;;;;;5095662;28;20122;-75
2024/02/09 05:58:13;;;;;;;36.30;18.77;;;3.70;99.90;;;;;;5095870;27;20062;-75
2024/02/09 06:00:38;;;;;;;36.40;18.48;;;3.80;99.90;;;;;;5081441;27;20044;-76
2024/02/09 06:03:08;;;;;;;36.88;18.98;;;3.90;99.90;;;;;;5097524;27;20141;-75
2024/02/09 06:05:38;;;;;;;37.80;18.43;;;3.80;99.90;;;;;;5103384;27;20114;-75
2024/02/09 06:08:08;;;;;;;36.35;19.33;;;3.90;99.90;;;;;;5103849;27;20047;-75
2024/02/09 06:10:33;;;;;;;32.58;17.48;;;3.90;99.90;;;;;;5084731;28;20039;-76
2024/02/09 06:12:59;;;;;;;35.15;18.30;;;4.00;99.90;;;;;;5082634;28;20036;-75
2024/02/09 06:15:25;;;;;;;34.58;18.20;;;4.00;99.90;;;;;;5098357;28;20494;-75
2024/02/09 06:17:51;;;;;;;32.85;16.20;;;4.00;99.90;;;;;;5103067;27;20043;-75
2024/02/09 06:20:19;;;;;;;34.40;17.30;;;4.10;99.90;;;;;;5090989;28;20040;-75
2024/02/09 06:22:46;;;;;;;32.85;17.35;;;4.10;99.90;;;;;;5080908;27;20113;-75
2024/02/09 06:25:12;;;;;;;33.20;15.73;;;4.10;99.90;;;;;;5083802;28;20046;-76
2024/02/09 06:27:38;;;;;;;31.63;16.23;;;4.10;99.90;;;;;;5093920;28;20784;-75
2024/02/09 06:30:04;;;;;;;33.40;16.15;;;4.10;99.90;;;;;;5090063;28;20134;-75
2024/02/09 06:32:31;;;;;;;32.22;16.27;;;4.10;99.90;;;;;;5101235;28;20047;-75
2024/02/09 06:34:59;;;;;;;32.58;15.35;;;4.20;99.90;;;;;;5103050;28;20059;-75
2024/02/09 06:37:25;;;;;;;30.80;15.80;;;4.20;99.90;;;;;;5077523;28;20592;-75
2024/02/09 06:39:50;;;;;;;33.47;16.75;;;4.20;99.90;;;;;;5087415;28;20039;-76
2024/02/09 06:42:17;;;;;;;36.15;17.17;;;4.20;99.90;;;;;;5106800;27;20062;-75
2024/02/09 06:44:44;;;;;;;35.35;16.63;;;4.30;99.90;;;;;;5087757;27;20043;-75
2024/02/09 06:47:10;;;;;;;39.03;16.98;;;4.20;99.90;;;;;;5099440;27;20497;-75
2024/02/09 06:49:37;;;;;;;35.22;17.00;;;4.30;99.90;;;;;;5104502;27;20051;-75
2024/02/09 06:52:04;;;;;;;37.38;17.10;;;4.30;99.90;;;;;;5089457;28;20584;-75
2024/02/09 06:54:30;;;;;;;35.92;17.85;;;4.30;99.90;;;;;;5093564;27;20084;-78
2024/02/09 06:56:56;;;;;;;37.72;17.33;;;4.30;99.90;;;;;;5105825;27;20040;-75
2024/02/09 06:59:23;;;;;;;41.83;19.83;;;4.30;99.90;;;;;;5110427;27;20366;-75
2024/02/09 07:01:51;;;;;;;41.88;18.85;;;4.40;99.90;;;;;;5099372;28;20048;-75
2024/02/09 07:04:18;;;;;;;42.45;21.08;;;4.40;99.90;;;;;;5107877;28;20415;-75
2024/02/09 07:06:47;;;;;;;49.28;20.85;;;4.50;99.90;;;;;;5110281;28;20528;-75
2024/02/09 07:09:18;;;;;;;51.65;23.40;;;4.50;99.90;;;;;;5109655;28;20494;-75
2024/02/09 07:11:50;;;;;;;46.83;23.17;;;4.50;99.90;;;;;;5108812;28;20530;-75
2024/02/09 07:14:17;;;;;;;45.28;21.77;;;4.60;99.90;;;;;;5109295;28;20545;-75
2024/02/09 07:16:46;;;;;;;52.85;22.60;;;4.60;99.90;;;;;;5088701;27;20200;-75
2024/02/09 07:19:12;;;;;;;52.45;24.00;;;4.70;99.90;;;;;;5096853;27;20047;-75
2024/02/09 07:21:42;;;;;;;58.70;25.67;;;4.70;99.90;;;;;;5105139;27;20181;-75
2024/02/09 07:24:08;;;;;;;58.75;25.42;;;4.70;99.90;;;;;;5090657;27;20267;-75
2024/02/09 07:26:35;;;;;;;66.50;28.17;;;4.80;99.90;;;;;;5104767;27;20047;-75
2024/02/09 07:29:01;;;;;;;73.82;31.08;;;4.80;99.90;;;;;;5101586;27;21518;-76
2024/02/09 07:31:27;;;;;;;71.32;30.33;;;4.90;99.90;;;;;;5088704;28;20043;-75
2024/02/09 07:33:55;;;;;;;65.25;28.10;;;4.90;99.90;;;;;;5108168;27;20055;-75
2024/02/09 07:36:21;;;;;;;70.53;29.17;;;5.00;99.90;;;;;;5085998;27;20521;-75
2024/02/09 07:38:47;;;;;;;77.60;30.10;;;5.00;99.90;;;;;;5100008;27;20572;-75
2024/02/09 07:41:19;;;;;;;72.13;31.90;;;5.10;99.90;;;;;;5099678;27;20564;-75
2024/02/09 07:43:49;;;;;;;88.57;34.13;;;5.10;99.90;;;;;;5107992;27;20039;-74
2024/02/09 07:46:15;;;;;;;79.57;33.38;;;5.20;99.90;;;;;;5098017;28;20058;-75
2024/02/09 07:48:47;;;;;;;84.47;34.13;;;5.20;99.90;;;;;;5091472;28;20052;-74
2024/02/09 07:51:20;;;;;;;83.28;35.00;;;5.30;99.90;;;;;;5104198;27;20052;-75
2024/02/09 07:53:52;;;;;;;84.55;36.42;;;5.40;99.90;;;;;;5087019;27;20107;-75
2024/02/09 07:56:20;;;;;;;93.38;37.55;;;5.40;99.90;;;;;;5101753;27;20052;-76
2024/02/09 07:58:46;;;;;;;90.25;36.47;;;5.50;99.90;;;;;;5086869;28;20067;-77
2024/02/09 08:01:12;;;;;;;102.03;38.42;;;5.60;99.90;;;;;;5096359;28;20423;-77
2024/02/09 08:03:38;;;;;;;100.25;38.83;;;5.60;99.90;;;;;;5095344;27;20375;-76
2024/02/09 08:06:04;;;;;;;99.15;38.88;;;5.70;99.90;;;;;;5114741;27;20716;-76
2024/02/09 08:08:30;;;;;;;97.93;38.97;;;5.70;99.90;;;;;;5095756;27;20039;-76
2024/02/09 08:10:57;;;;;;;99.75;39.42;;;5.80;99.90;;;;;;5092284;27;20050;-76
2024/02/09 08:13:23;;;;;;;102.18;40.83;;;5.80;99.90;;;;;;5105116;27;20048;-76
2024/02/09 08:15:49;;;;;;;94.32;38.97;;;5.90;99.90;;;;;;5110360;27;20051;-77
2024/02/09 08:18:15;;;;;;;98.25;40.53;;;5.90;99.90;;;;;;5079914;27;20048;-78
2024/02/09 08:20:41;;;;;;;113.50;42.88;;;6.00;99.90;;;;;;5109607;27;20063;-78
2024/02/09 08:23:07;;;;;;;112.07;41.85;;;6.00;99.90;;;;;;5093530;27;20532;-78
2024/02/09 08:25:33;;;;;;;105.32;41.45;;;6.10;99.90;;;;;;5108768;27;20036;-78
2024/02/09 08:28:00;;;;;;;111.45;41.80;;;6.10;99.90;;;;;;5104848;27;20438;-78
2024/02/09 08:30:26;;;;;;;109.32;41.08;;;6.20;99.90;;;;;;5092997;27;20501;-77
2024/02/09 08:32:53;;;;;;;91.78;37.35;;;6.30;99.90;;;;;;5104320;27;20050;-78
2024/02/09 08:35:19;;;;;;;108.50;41.17;;;6.40;99.90;;;;;;5084643;27;20508;-78
2024/02/09 08:37:45;;;;;;;100.63;40.15;;;6.40;99.90;;;;;;5084471;28;20040;-78
2024/02/09 08:40:11;;;;;;;84.95;37.17;;;6.50;99.90;;;;;;5102747;28;20048;-78
2024/02/09 08:42:37;;;;;;;84.57;37.10;;;6.60;99.90;;;;;;5092925;27;20042;-78
2024/02/09 08:45:03;;;;;;;66.40;33.00;;;6.70;99.90;;;;;;5104063;27;20064;-78
2024/02/09 08:47:29;;;;;;;61.42;32.08;;;6.80;99.90;;;;;;5103470;27;20500;-79
2024/02/09 08:49:56;;;;;;;71.82;34.45;;;7.00;99.90;;;;;;5104620;27;20063;-81
2024/02/09 08:52:21;;;;;;;50.78;29.50;;;7.20;99.90;;;;;;5087527;28;20312;-81
2024/02/09 08:54:47;;;;;;;46.70;28.52;;;7.30;99.90;;;;;;5100821;27;20078;-81
2024/02/09 08:57:18;;;;;;;40.10;26.45;;;7.40;99.90;;;;;;5104010;27;20044;-81
2024/02/09 08:59:44;;;;;;;49.22;27.25;;;7.60;99.90;;;;;;5091926;27;20637;-81
2024/02/09 09:02:11;;;;;;;33.78;23.10;;;7.70;99.90;;;;;;5088418;28;20051;-80
2024/02/09 09:04:40;;;;;;;34.15;24.58;;;7.90;99.90;;;;;;5097801;28;20043;-80
2024/02/09 09:07:05;;;;;;;32.92;23.13;;;8.00;99.90;;;;;;5097450;27;20593;-81
2024/02/09 09:09:31;;;;;;;27.13;20.60;;;8.10;99.90;;;;;;5101304;27;20108;-81
2024/02/09 09:11:57;;;;;;;32.33;20.45;;;8.20;99.90;;;;;;5101803;27;20489;-80
2024/02/09 09:14:25;;;;;;;28.00;19.98;;;8.30;99.90;;;;;;5087884;28;20036;-80
2024/02/09 09:16:52;;;;;;;26.52;20.38;;;8.40;99.90;;;;;;5085959;27;20075;-80
2024/02/09 09:19:18;;;;;;;25.00;17.63;;;8.50;99.90;;;;;;5082444;27;20047;-80
2024/02/09 09:21:44;;;;;;;27.98;19.70;;;8.60;99.90;;;;;;5089433;27;20050;-81
2024/02/09 09:24:11;;;;;;;26.83;18.73;;;8.60;99.90;;;;;;5097465;28;20080;-78
2024/02/09 09:26:37;;;;;;;24.48;18.70;;;8.70;99.90;;;;;;5086097;27;21701;-80
2024/02/09 09:29:02;;;;;;;24.90;18.13;;;8.80;99.90;;;;;;5106753;27;20181;-80
2024/02/09 09:31:34;;;;;;;25.73;17.85;;;8.80;99.90;;;;;;5101886;27;20525;-80
2024/02/09 09:34:06;;;;;;;25.45;18.30;;;8.90;99.90;;;;;;5102506;27;20413;-80
2024/02/09 09:36:33;;;;;;;19.40;16.02;;;8.90;99.90;;;;;;5085454;28;20039;-80
2024/02/09 09:39:02;;;;;;;22.88;17.75;;;8.90;99.90;;;;;;5096052;27;20440;-80
2024/02/09 09:41:28;;;;;;;21.27;16.15;;;9.00;99.90;;;;;;5083848;28;20042;-79
2024/02/09 09:43:56;;;;;;;19.90;14.48;;;9.00;99.90;;;;;;5085334;28;20039;-80
2024/02/09 09:46:26;;;;;;;19.65;15.18;;;9.00;99.90;;;;;;5072159;28;20046;-81
2024/02/09 09:48:54;;;;;;;20.27;15.38;;;9.10;99.90;;;;;;5071534;28;20083;-80
2024/02/09 09:51:22;;;;;;;21.02;14.82;;;9.10;99.90;;;;;;5090475;27;20500;-80
2024/02/09 09:53:52;;;;;;;17.23;13.82;;;9.20;99.90;;;;;;5089239;28;20048;-81
2024/02/09 09:56:19;;;;;;;20.15;13.98;;;9.20;99.90;;;;;;5088817;28;20501;-80
2024/02/09 09:58:45;;;;;;;18.77;13.48;;;9.20;99.90;;;;;;5094789;27;20444;-80
2024/02/09 10:01:12;;;;;;;17.17;13.70;;;9.20;99.90;;;;;;5091465;27;20036;-79
2024/02/09 10:03:43;;;;;;;16.95;12.30;;;9.20;99.90;;;;;;5088295;28;20524;-79
2024/02/09 10:06:09;;;;;;;19.13;13.63;;;9.30;99.90;;;;;;5088884;28;20510;-80
2024/02/09 10:08:35;;;;;;;19.45;13.52;;;9.40;99.90;;;;;;5085666;28;20067;-79
2024/02/09 10:11:08;;;;;;;18.15;13.23;;;9.40;99.90;;;;;;5072821;28;20090;-79
2024/02/09 10:13:34;;;;;;;14.60;11.90;;;9.40;99.90;;;;;;5082371;28;20052;-81
2024/02/09 10:16:03;;;;;;;17.30;12.70;;;9.40;99.90;;;;;;5094828;28;20051;-80
2024/02/09 10:18:38;;;;;;;15.00;11.93;;;9.40;99.90;;;;;;5089621;28;20530;-80
2024/02/09 10:21:11;;;;;;;16.48;11.70;;;9.40;99.90;;;;;;5071564;28;20071;-79
2024/02/09 10:23:37;;;;;;;16.55;12.32;;;9.40;99.90;;;;;;5077115;28;20135;-79
2024/02/09 10:26:05;;;;;;;17.88;12.05;;;9.50;99.90;;;;;;5083677;28;20126;-80
2024/02/09 10:28:35;;;;;;;17.45;13.35;;;9.50;99.90;;;;;;5084870;28;20040;-79
2024/02/09 10:31:01;;;;;;;20.55;12.52;;;9.50;99.90;;;;;;5092101;28;20529;-79
2024/02/09 10:33:27;;;;;;;16.05;13.30;;;9.60;99.90;;;;;;5074839;28;20087;-77
2024/02/09 10:35:57;;;;;;;17.35;12.63;;;9.60;99.90;;;;;;5091500;28;20146;-78
2024/02/09 10:38:23;;;;;;;17.37;12.93;;;9.60;99.90;;;;;;5095936;28;20039;-78
2024/02/09 10:40:54;;;;;;;18.25;14.70;;;9.70;99.90;;;;;;5091107;28;20054;-76
2024/02/09 10:43:23;;;;;;;20.02;13.50;;;9.70;99.90;;;;;;5080282;28;20082;-76
2024/02/09 10:45:51;;;;;;;16.42;12.05;;;9.70;99.90;;;;;;5096410;28;20234;-76
2024/02/09 10:48:23;;;;;;;16.38;12.48;;;9.80;99.90;;;;;;5082907;28;20043;-77
2024/02/09 10:50:55;;;;;;;18.95;13.68;;;9.80;99.90;;;;;;5101441;28;20048;-77
2024/02/09 10:53:25;;;;;;;16.65;13.43;;;9.80;99.90;;;;;;5097809;28;20048;-77
2024/02/09 10:56:02;;;;;;;;;;;9.80;99.90;;;;;;5082771;28;20047;-77
2024/02/09 10:58:39;;;;;;;17.73;14.15;;;9.90;99.90;;;;;;5101427;28;19919;-77
2024/02/09 11:01:09;;;;;;;18.85;13.20;;;9.90;99.90;;;;;;5099652;28;20439;-77
2024/02/09 11:03:34;;;;;;;15.20;12.00;;;9.90;99.90;;;;;;5098280;28;20096;-77
2024/02/09 11:06:04;;;;;;;18.40;11.73;;;10.00;99.90;;;;;;5098930;28;20064;-77
2024/02/09 11:08:33;;;;;;;13.10;11.53;;;10.00;99.90;;;;;;5099266;28;20074;-77
2024/02/09 11:11:07;;;;;;;14.65;12.00;;;10.00;99.90;;;;;;5085144;28;20489;-77
2024/02/09 11:13:34;;;;;;;19.10;13.18;;;10.00;99.90;;;;;;5082167;28;20036;-78
2024/02/09 11:16:03;;;;;;;15.68;11.52;;;10.10;99.90;;;;;;5096299;28;20040;-77
2024/02/09 11:18:36;;;;;;;17.02;12.80;;;10.10;99.90;;;;;;5117099;28;20037;-77
2024/02/09 11:21:11;;;;;;;16.45;13.32;;;10.10;99.90;;;;;;5089809;28;20521;-77
2024/02/09 11:23:43;;;;;;;19.35;12.82;;;10.20;99.90;;;;;;5101455;28;20040;-78
2024/02/09 11:26:16;;;;;;;17.60;12.43;;;10.30;99.90;;;;;;5111064;27;20073;-77
2024/02/09 11:28:42;;;;;;;15.50;11.93;;;10.40;99.90;;;;;;5108490;27;20039;-76
2024/02/09 11:31:12;;;;;;;20.83;13.13;;;10.40;99.90;;;;;;5088012;28;20054;-77
2024/02/09 11:33:42;;;;;;;16.88;10.80;;;10.50;99.90;;;;;;5108344;27;20036;-76
2024/02/09 11:36:08;;;;;;;16.52;10.93;;;10.50;99.90;;;;;;5109953;27;20046;-77
2024/02/09 11:38:34;;;;;;;14.75;10.10;;;10.60;99.90;;;;;;5116401;27;20043;-76
2024/02/09 11:41:00;;;;;;;17.15;12.45;;;10.60;99.90;;;;;;5084010;28;20100;-77
2024/02/09 11:43:26;;;;;;;15.57;10.38;;;10.60;99.90;;;;;;5086193;28;20043;-76
2024/02/09 11:45:54;;;;;;;16.60;11.90;;;10.60;99.90;;;;;;5096566;27;20192;-77
2024/02/09 11:48:23;;;;;;;13.23;9.85;;;10.60;99.90;;;;;;5119627;27;20043;-76
2024/02/09 11:50:49;;;;;;;16.00;10.57;;;10.70;99.90;;;;;;5096538;27;20046;-76
2024/02/09 11:53:15;;;;;;;15.63;10.50;;;10.70;99.90;;;;;;5110125;28;20124;-76
2024/02/09 11:55:42;;;;;;;12.75;9.68;;;10.70;99.90;;;;;;5112680;27;20051;-76
2024/02/09 11:58:10;;;;;;;16.25;9.48;;;10.70;99.90;;;;;;5092483;28;20087;-76
2024/02/09 12:00:36;;;;;;;13.50;10.63;;;10.60;99.90;;;;;;5092311;28;20061;-76
2024/02/09 12:03:04;;;;;;;15.85;9.45;;;10.70;99.90;;;;;;5109175;28;20043;-77
2024/02/09 12:05:31;;;;;;;13.40;9.35;;;10.70;99.90;;;;;;5092091;28;20050;-76
2024/02/09 12:07:57;;;;;;;15.55;9.95;;;10.70;99.90;;;;;;5089069;28;20523;-75
2024/02/09 12:10:22;;;;;;;12.13;8.43;;;10.70;99.90;;;;;;5109503;27;20047;-76
2024/02/09 12:12:48;;;;;;;13.18;9.15;;;10.70;99.90;;;;;;5106039;27;20074;-76
2024/02/09 12:15:18;;;;;;;12.48;9.40;;;10.70;99.90;;;;;;5110439;28;20538;-76
2024/02/09 12:17:47;;;;;;;12.05;8.90;;;10.80;99.90;;;;;;5075585;28;20036;-76
2024/02/09 12:20:14;;;;;;;14.35;9.23;;;10.80;99.90;;;;;;5112301;27;20130;-76
2024/02/09 12:22:41;;;;;;;12.57;8.80;;;10.90;99.90;;;;;;5104051;28;20042;-76
2024/02/09 12:25:11;;;;;;;14.90;8.68;;;10.90;99.90;;;;;;5094192;28;20052;-76
2024/02/09 12:27:37;;;;;;;;;;;10.90;99.90;;;;;;5092162;28;20047;-76
2024/02/09 12:30:04;;;;;;;13.48;8.48;;;11.00;99.90;;;;;;5092082;28;19965;-75
2024/02/09 12:32:32;;;;;;;11.55;8.30;;;11.00;99.90;;;;;;5092329;28;20111;-75
2024/02/09 12:34:58;;;;;;;14.57;8.60;;;11.10;99.90;;;;;;5107924;28;20043;-76
2024/02/09 12:37:24;;;;;;;11.88;8.57;;;11.10;99.90;;;;;;5096015;28;20047;-76
2024/02/09 12:39:53;;;;;;;11.65;8.73;;;11.10;99.90;;;;;;5108705;27;20126;-76
2024/02/09 12:42:31;;;;;;;12.07;9.00;;;11.20;99.90;;;;;;5090403;28;20512;-76
2024/02/09 12:44:57;;;;;;;11.02;9.23;;;11.20;99.90;;;;;;5109570;27;20513;-76
2024/02/09 12:47:24;;;;;;;13.90;9.23;;;11.20;99.90;;;;;;5093492;28;20051;-75
2024/02/09 12:49:50;;;;;;;9.93;8.43;;;11.20;99.90;;;;;;5093992;28;20083;-76
2024/02/09 12:52:16;;;;;;;12.13;8.77;;;11.20;99.90;;;;;;5107122;27;20047;-76
2024/02/09 12:54:42;;;;;;;14.48;8.30;;;11.20;99.90;;;;;;5089358;28;20044;-76
2024/02/09 12:57:09;;;;;;;11.93;8.13;;;11.10;99.90;;;;;;5090320;28;20113;-76
2024/02/09 12:59:35;;;;;;;11.90;9.15;;;11.10;99.90;;;;;;5090271;28;20044;-76
2024/02/09 13:02:04;;;;;;;14.40;8.50;;;11.10;99.90;;;;;;5107711;28;20051;-76
2024/02/09 13:04:34;;;;;;;11.80;9.18;;;11.10;99.90;;;;;;5088349;28;20184;-76
2024/02/09 13:07:00;;;;;;;12.82;8.75;;;11.10;99.90;;;;;;5081618;28;20051;-76
2024/02/09 13:09:26;;;;;;;12.77;8.65;;;11.10;99.90;;;;;;5104084;27;20108;-76
2024/02/09 13:11:53;;;;;;;13.73;9.38;;;11.00;99.90;;;;;;5105353;27;20489;-76
2024/02/09 13:14:19;;;;;;;14.15;8.48;;;11.10;99.90;;;;;;5107401;27;20039;-76
2024/02/09 13:16:51;;;;;;;11.50;9.05;;;11.00;99.90;;;;;;5095699;28;20054;-76
2024/02/09 13:19:18;;;;;;;12.25;8.27;;;11.00;99.90;;;;;;5086587;28;20147;-76
2024/02/09 13:21:55;;;;;;;11.20;8.05;;;11.00;99.90;;;;;;5088755;28;20055;-76
2024/02/09 13:24:21;;;;;;;13.77;8.25;;;11.00;99.90;;;;;;5107757;28;20058;-76
2024/02/09 13:26:50;;;;;;;11.00;8.38;;;11.00;99.90;;;;;;5109593;27;20035;-76
2024/02/09 13:29:24;;;;;;;11.57;8.35;;;11.00;99.90;;;;;;5086388;28;20048;-76
2024/02/09 13:31:58;;;;;;;14.35;7.82;;;11.00;99.90;;;;;;5092668;27;20113;-76
2024/02/09 13:34:24;;;;;;;12.13;7.93;;;10.90;99.90;;;;;;5103865;27;20134;-76
2024/02/09 13:36:51;;;;;;;11.88;8.50;;;10.90;99.90;;;;;;5098206;28;20074;-76
2024/02/09 13:39:17;;;;;;;11.15;7.75;;;10.90;99.90;;;;;;5107936;27;20358;-76
2024/02/09 13:41:43;;;;;;;12.48;7.65;;;10.90;99.90;;;;;;5089161;28;20043;-76
2024/02/09 13:44:09;;;;;;;9.65;7.25;;;10.90;99.90;;;;;;5098402;28;20073;-76
2024/02/09 13:46:35;;;;;;;9.88;7.72;;;10.90;99.90;;;;;;5078670;28;20078;-76
2024/02/09 13:49:04;;;;;;;10.15;6.72;;;10.90;99.90;;;;;;5087085;28;20039;-76
2024/02/09 13:51:31;;;;;;;11.27;7.80;;;10.90;99.90;;;;;;5086318;28;20089;-76
2024/02/09 13:53:57;;;;;;;9.88;7.18;;;10.90;99.90;;;;;;5097569;27;20039;-76
2024/02/09 13:56:23;;;;;;;11.63;7.97;;;10.90;99.90;;;;;;5095675;27;20078;-76
2024/02/09 13:58:48;;;;;;;13.68;8.30;;;10.90;99.90;;;;;;5102906;27;20067;-76
2024/02/09 14:01:15;;;;;;;10.35;7.82;;;10.90;99.90;;;;;;5102874;27;20042;-76
2024/02/09 14:03:44;;;;;;;10.10;7.68;;;10.90;99.90;;;;;;5075877;28;20046;-76
2024/02/09 14:06:11;;;;;;;12.40;9.10;;;10.90;99.90;;;;;;5099681;27;20047;-76
2024/02/09 14:08:38;;;;;;;12.43;7.95;;;10.90;99.90;;;;;;5099926;28;20316;-76
2024/02/09 14:11:05;;;;;;;10.50;8.02;;;10.90;99.90;;;;;;5102149;27;20526;-76
2024/02/09 14:13:34;;;;;;;10.02;8.10;;;10.90;99.90;;;;;;5082060;28;20040;-76
2024/02/09 14:16:00;;;;;;;10.25;7.65;;;11.00;99.90;;;;;;5077830;28;20056;-76
2024/02/09 14:18:27;;;;;;;9.63;8.15;;;10.90;99.90;;;;;;5103896;28;20508;-76
2024/02/09 14:20:53;;;;;;;9.55;7.13;;;11.00;99.90;;;;;;5097275;28;20162;-76
2024/02/09 14:23:19;;;;;;;12.23;8.05;;;11.00;99.90;;;;;;5086666;28;20031;-76
2024/02/09 14:25:45;;;;;;;11.25;7.40;;;11.00;99.90;;;;;;5092621;28;20039;-76
2024/02/09 14:28:12;;;;;;;10.93;7.68;;;11.00;99.90;;;;;;5095896;28;20622;-76
2024/02/09 14:30:39;;;;;;;8.85;6.63;;;11.00;99.90;;;;;;5101781;28;20490;-76